Tianjin Binhai International Airport
ZBTJ : now visible

Aeroporto :











RITROVATECI SU...

 
LOGIN :

Iscrizione | Disclaimer

   EN    FR    IT 

 









Sommario :    VFR   VFR Marginale   IFR   IFR Intensivo   IFR Molto Intensivo
Visibilità : 
Base nubi : 
>= 8 km
>= 3000ft
5 / 8 km
1000 / 3000 ft
1500m / 5 km
500 / 1000 ft
800 / 1500m
200 / 500 ft
< 800m
< 200 ft
Simboli :   Temporali  Nebbia  Neve Forte  Precipitazioni Forti  Vento > 20 kt







- Altitudine del aeroporto : 10 ft
- Codice IATA : TSN


ZBTJ - Tianjin Binhai International

ULTIMO METAR :
  • 191430Z 18002MPS 7000 NSC 16/06 Q1006 NOSIG

METARs OBSOLETI :
  • 191400Z 19002MPS 7000 NSC 17/06 Q1007 NOSIG
  • 191330Z 19002MPS 110V220 8000 NSC 18/06 Q1007 NOSIG
  • 191300Z 20004MPS 8000 NSC 19/06 Q1007 NOSIG
  • 191230Z 20005MPS 8000 NSC 20/06 Q1006 NOSIG
  • 191200Z 20006MPS 8000 NSC 20/06 Q1006 NOSIG

TAF TAF ZBTJ
Valido dal 19 a 12 ore il 20 a 12 ore UTC


190855Z 1912/2012 21004MPS 5000 HZ NSC TX18/2007Z TN14/1922Z
FIR ZBPE / Asia



MetMap, La meteo Aeronautica in un colpo d'occhio ! - Copyright ORBIFLY Dicembre 2007 - Disclaimer

ORBIFLY MET'MAP TEAM :

Programmazione e sviluppo : Alexandra Zaïnal
Concezione e sviluppo : Baudouin d'Aumeries
Co-Programmazione e sviluppo : Marc-Olivier Méhu
Supporto tecnico e logistico : Manuel Goepfert
Aiuto per la traduzione : Arnaldo La Scala

Contatto : metmap@orbifly.com




FONTI E CREDITI :

   NOAA       Earth
Advisory